sensor_id;sensor_type;location;lat;lon;timestamp;P1;durP1;ratioP1;P2;durP2;ratioP2
27313;SDS011;14800;48.174;9.798;2022-12-01T00:00:54;27.85;;;16.23;;
27313;SDS011;14800;48.174;9.798;2022-12-01T00:03:20;30.60;;;15.73;;
27313;SDS011;14800;48.174;9.798;2022-12-01T00:05:46;30.95;;;16.92;;
27313;SDS011;14800;48.174;9.798;2022-12-01T00:08:11;29.55;;;16.23;;
27313;SDS011;14800;48.174;9.798;2022-12-01T00:10:37;30.05;;;16.65;;
27313;SDS011;14800;48.174;9.798;2022-12-01T00:13:03;29.85;;;16.50;;
27313;SDS011;14800;48.174;9.798;2022-12-01T00:15:31;32.20;;;17.58;;
27313;SDS011;14800;48.174;9.798;2022-12-01T00:18:04;31.35;;;16.77;;
27313;SDS011;14800;48.174;9.798;2022-12-01T00:20:31;31.20;;;17.15;;
27313;SDS011;14800;48.174;9.798;2022-12-01T00:22:58;31.65;;;16.95;;
27313;SDS011;14800;48.174;9.798;2022-12-01T00:25:24;28.77;;;16.08;;
27313;SDS011;14800;48.174;9.798;2022-12-01T00:27:50;31.08;;;16.20;;
27313;SDS011;14800;48.174;9.798;2022-12-01T00:30:17;30.05;;;16.77;;
27313;SDS011;14800;48.174;9.798;2022-12-01T00:32:44;29.58;;;16.17;;
27313;SDS011;14800;48.174;9.798;2022-12-01T00:35:11;29.98;;;16.85;;
27313;SDS011;14800;48.174;9.798;2022-12-01T00:37:37;29.67;;;16.65;;
27313;SDS011;14800;48.174;9.798;2022-12-01T00:40:03;29.90;;;16.33;;
27313;SDS011;14800;48.174;9.798;2022-12-01T00:42:32;31.33;;;17.42;;
27313;SDS011;14800;48.174;9.798;2022-12-01T00:44:57;27.75;;;16.20;;
27313;SDS011;14800;48.174;9.798;2022-12-01T00:47:23;33.90;;;17.10;;
27313;SDS011;14800;48.174;9.798;2022-12-01T00:49:48;31.38;;;16.63;;
27313;SDS011;14800;48.174;9.798;2022-12-01T00:52:16;30.58;;;17.13;;
27313;SDS011;14800;48.174;9.798;2022-12-01T00:54:42;30.45;;;16.55;;
27313;SDS011;14800;48.174;9.798;2022-12-01T00:57:08;32.13;;;17.13;;
27313;SDS011;14800;48.174;9.798;2022-12-01T00:59:34;30.35;;;16.58;;
27313;SDS011;14800;48.174;9.798;2022-12-01T01:02:00;31.60;;;17.38;;
27313;SDS011;14800;48.174;9.798;2022-12-01T01:04:28;34.20;;;17.27;;
27313;SDS011;14800;48.174;9.798;2022-12-01T01:06:55;31.27;;;17.88;;
27313;SDS011;14800;48.174;9.798;2022-12-01T01:09:20;33.97;;;18.92;;
27313;SDS011;14800;48.174;9.798;2022-12-01T01:11:46;31.90;;;17.17;;
27313;SDS011;14800;48.174;9.798;2022-12-01T01:14:12;32.50;;;17.85;;
27313;SDS011;14800;48.174;9.798;2022-12-01T01:16:38;32.45;;;17.42;;
27313;SDS011;14800;48.174;9.798;2022-12-01T01:19:03;32.25;;;16.45;;
27313;SDS011;14800;48.174;9.798;2022-12-01T01:21:29;36.72;;;17.80;;
27313;SDS011;14800;48.174;9.798;2022-12-01T01:23:55;33.40;;;17.20;;
27313;SDS011;14800;48.174;9.798;2022-12-01T01:26:23;32.95;;;16.27;;
27313;SDS011;14800;48.174;9.798;2022-12-01T01:28:50;31.75;;;16.92;;
27313;SDS011;14800;48.174;9.798;2022-12-01T01:31:17;32.38;;;17.63;;
27313;SDS011;14800;48.174;9.798;2022-12-01T01:33:44;32.75;;;17.13;;
27313;SDS011;14800;48.174;9.798;2022-12-01T01:36:10;34.38;;;17.85;;
27313;SDS011;14800;48.174;9.798;2022-12-01T01:38:36;34.10;;;17.48;;
27313;SDS011;14800;48.174;9.798;2022-12-01T01:41:03;32.83;;;17.92;;
27313;SDS011;14800;48.174;9.798;2022-12-01T01:46:23;34.72;;;18.38;;
27313;SDS011;14800;48.174;9.798;2022-12-01T01:51:19;34.92;;;17.90;;
27313;SDS011;14800;48.174;9.798;2022-12-01T01:53:48;35.38;;;18.23;;
27313;SDS011;14800;48.174;9.798;2022-12-01T01:56:18;34.00;;;17.73;;
27313;SDS011;14800;48.174;9.798;2022-12-01T01:58:43;37.38;;;18.45;;
27313;SDS011;14800;48.174;9.798;2022-12-01T02:01:09;34.92;;;18.02;;
27313;SDS011;14800;48.174;9.798;2022-12-01T02:03:35;35.60;;;17.15;;
27313;SDS011;14800;48.174;9.798;2022-12-01T02:06:02;33.70;;;17.38;;
27313;SDS011;14800;48.174;9.798;2022-12-01T02:08:29;36.10;;;17.55;;
27313;SDS011;14800;48.174;9.798;2022-12-01T02:11:04;34.85;;;18.55;;
27313;SDS011;14800;48.174;9.798;2022-12-01T02:28:03;32.95;;;17.15;;
27313;SDS011;14800;48.174;9.798;2022-12-01T02:31:14;35.60;;;18.25;;
27313;SDS011;14800;48.174;9.798;2022-12-01T02:33:39;35.63;;;18.27;;
27313;SDS011;14800;48.174;9.798;2022-12-01T02:41:48;36.78;;;16.92;;
27313;SDS011;14800;48.174;9.798;2022-12-01T02:44:23;37.05;;;18.63;;
27313;SDS011;14800;48.174;9.798;2022-12-01T02:47:04;34.80;;;18.38;;
27313;SDS011;14800;48.174;9.798;2022-12-01T02:49:41;37.50;;;18.30;;
27313;SDS011;14800;48.174;9.798;2022-12-01T02:52:11;34.50;;;18.60;;
27313;SDS011;14800;48.174;9.798;2022-12-01T02:54:38;37.67;;;19.50;;
27313;SDS011;14800;48.174;9.798;2022-12-01T02:57:05;38.08;;;19.63;;
27313;SDS011;14800;48.174;9.798;2022-12-01T02:59:35;39.80;;;20.13;;
27313;SDS011;14800;48.174;9.798;2022-12-01T03:05:08;37.47;;;19.40;;
27313;SDS011;14800;48.174;9.798;2022-12-01T03:18:35;38.70;;;18.98;;
27313;SDS011;14800;48.174;9.798;2022-12-01T03:21:14;39.28;;;19.35;;
27313;SDS011;14800;48.174;9.798;2022-12-01T03:23:46;38.75;;;19.10;;
27313;SDS011;14800;48.174;9.798;2022-12-01T03:26:15;38.95;;;19.55;;
27313;SDS011;14800;48.174;9.798;2022-12-01T03:28:43;40.33;;;20.02;;
27313;SDS011;14800;48.174;9.798;2022-12-01T03:31:14;38.85;;;20.40;;
27313;SDS011;14800;48.174;9.798;2022-12-01T03:33:48;36.17;;;19.52;;
27313;SDS011;14800;48.174;9.798;2022-12-01T03:36:19;35.33;;;19.08;;
27313;SDS011;14800;48.174;9.798;2022-12-01T03:38:51;36.35;;;17.90;;
27313;SDS011;14800;48.174;9.798;2022-12-01T03:41:23;37.72;;;19.13;;
27313;SDS011;14800;48.174;9.798;2022-12-01T03:43:53;38.92;;;20.20;;
27313;SDS011;14800;48.174;9.798;2022-12-01T03:49:02;36.63;;;18.80;;
27313;SDS011;14800;48.174;9.798;2022-12-01T03:51:36;37.30;;;19.58;;
27313;SDS011;14800;48.174;9.798;2022-12-01T03:54:21;39.00;;;20.05;;
27313;SDS011;14800;48.174;9.798;2022-12-01T03:57:30;34.80;;;18.08;;
27313;SDS011;14800;48.174;9.798;2022-12-01T04:00:00;38.95;;;19.30;;
27313;SDS011;14800;48.174;9.798;2022-12-01T04:02:26;35.55;;;19.02;;
27313;SDS011;14800;48.174;9.798;2022-12-01T04:04:52;39.15;;;19.88;;
27313;SDS011;14800;48.174;9.798;2022-12-01T04:07:19;39.90;;;20.25;;
27313;SDS011;14800;48.174;9.798;2022-12-01T04:09:45;37.20;;;19.85;;
27313;SDS011;14800;48.174;9.798;2022-12-01T04:12:12;40.03;;;20.25;;
27313;SDS011;14800;48.174;9.798;2022-12-01T04:14:57;38.63;;;19.88;;
27313;SDS011;14800;48.174;9.798;2022-12-01T04:17:24;36.88;;;19.73;;
27313;SDS011;14800;48.174;9.798;2022-12-01T04:19:50;38.25;;;19.13;;
27313;SDS011;14800;48.174;9.798;2022-12-01T04:22:16;38.95;;;20.83;;
27313;SDS011;14800;48.174;9.798;2022-12-01T04:24:42;38.08;;;20.15;;
27313;SDS011;14800;48.174;9.798;2022-12-01T04:27:07;37.20;;;20.38;;
27313;SDS011;14800;48.174;9.798;2022-12-01T04:29:33;39.10;;;20.75;;
27313;SDS011;14800;48.174;9.798;2022-12-01T04:31:58;36.55;;;19.20;;
27313;SDS011;14800;48.174;9.798;2022-12-01T04:34:24;37.70;;;19.70;;
27313;SDS011;14800;48.174;9.798;2022-12-01T04:36:50;37.05;;;20.02;;
27313;SDS011;14800;48.174;9.798;2022-12-01T04:39:18;40.35;;;19.95;;
27313;SDS011;14800;48.174;9.798;2022-12-01T04:41:44;38.70;;;19.92;;
27313;SDS011;14800;48.174;9.798;2022-12-01T04:44:09;38.55;;;20.50;;
27313;SDS011;14800;48.174;9.798;2022-12-01T04:46:35;35.95;;;19.08;;
27313;SDS011;14800;48.174;9.798;2022-12-01T04:49:01;35.30;;;19.23;;
27313;SDS011;14800;48.174;9.798;2022-12-01T04:51:27;36.58;;;19.50;;
27313;SDS011;14800;48.174;9.798;2022-12-01T04:53:53;41.10;;;20.35;;
27313;SDS011;14800;48.174;9.798;2022-12-01T04:56:18;42.50;;;20.55;;
27313;SDS011;14800;48.174;9.798;2022-12-01T04:58:44;39.78;;;19.98;;
27313;SDS011;14800;48.174;9.798;2022-12-01T05:01:10;40.10;;;20.92;;
27313;SDS011;14800;48.174;9.798;2022-12-01T05:03:38;38.97;;;20.83;;
27313;SDS011;14800;48.174;9.798;2022-12-01T05:06:14;38.60;;;21.00;;
27313;SDS011;14800;48.174;9.798;2022-12-01T05:08:44;41.53;;;20.55;;
27313;SDS011;14800;48.174;9.798;2022-12-01T05:11:10;39.20;;;20.52;;
27313;SDS011;14800;48.174;9.798;2022-12-01T05:13:37;40.38;;;20.83;;
27313;SDS011;14800;48.174;9.798;2022-12-01T05:16:14;40.78;;;20.80;;
27313;SDS011;14800;48.174;9.798;2022-12-01T05:18:42;40.25;;;20.60;;
27313;SDS011;14800;48.174;9.798;2022-12-01T05:21:08;39.63;;;20.63;;
27313;SDS011;14800;48.174;9.798;2022-12-01T05:23:35;38.78;;;20.52;;
27313;SDS011;14800;48.174;9.798;2022-12-01T05:26:02;41.10;;;21.13;;
27313;SDS011;14800;48.174;9.798;2022-12-01T05:28:29;43.08;;;21.20;;
27313;SDS011;14800;48.174;9.798;2022-12-01T05:30:55;41.17;;;21.45;;
27313;SDS011;14800;48.174;9.798;2022-12-01T05:33:21;39.38;;;21.00;;
27313;SDS011;14800;48.174;9.798;2022-12-01T05:35:48;41.78;;;21.83;;
27313;SDS011;14800;48.174;9.798;2022-12-01T05:38:14;42.47;;;21.05;;
27313;SDS011;14800;48.174;9.798;2022-12-01T05:40:40;44.08;;;20.92;;
27313;SDS011;14800;48.174;9.798;2022-12-01T05:43:05;44.67;;;21.63;;
27313;SDS011;14800;48.174;9.798;2022-12-01T05:45:31;41.15;;;21.00;;
27313;SDS011;14800;48.174;9.798;2022-12-01T05:47:59;43.20;;;20.92;;
27313;SDS011;14800;48.174;9.798;2022-12-01T05:50:27;42.53;;;22.25;;
27313;SDS011;14800;48.174;9.798;2022-12-01T05:52:53;39.88;;;20.42;;
27313;SDS011;14800;48.174;9.798;2022-12-01T05:55:19;40.67;;;21.75;;
27313;SDS011;14800;48.174;9.798;2022-12-01T05:57:45;39.85;;;20.40;;
27313;SDS011;14800;48.174;9.798;2022-12-01T06:00:11;40.78;;;21.27;;
27313;SDS011;14800;48.174;9.798;2022-12-01T06:02:40;44.92;;;21.35;;
27313;SDS011;14800;48.174;9.798;2022-12-01T06:05:06;40.65;;;20.55;;
27313;SDS011;14800;48.174;9.798;2022-12-01T06:07:33;43.38;;;22.58;;
27313;SDS011;14800;48.174;9.798;2022-12-01T06:09:59;35.00;;;19.42;;
27313;SDS011;14800;48.174;9.798;2022-12-01T06:12:26;42.00;;;20.38;;
27313;SDS011;14800;48.174;9.798;2022-12-01T06:14:52;36.88;;;19.73;;
27313;SDS011;14800;48.174;9.798;2022-12-01T06:17:17;42.25;;;20.25;;
27313;SDS011;14800;48.174;9.798;2022-12-01T06:19:43;34.83;;;19.25;;
27313;SDS011;14800;48.174;9.798;2022-12-01T06:22:08;41.35;;;20.27;;
27313;SDS011;14800;48.174;9.798;2022-12-01T06:24:34;40.65;;;19.85;;
27313;SDS011;14800;48.174;9.798;2022-12-01T06:27:00;37.20;;;20.10;;
27313;SDS011;14800;48.174;9.798;2022-12-01T06:29:26;39.75;;;20.00;;
27313;SDS011;14800;48.174;9.798;2022-12-01T06:31:52;38.67;;;20.33;;
27313;SDS011;14800;48.174;9.798;2022-12-01T06:34:17;37.88;;;19.63;;
27313;SDS011;14800;48.174;9.798;2022-12-01T06:36:43;37.20;;;19.77;;
27313;SDS011;14800;48.174;9.798;2022-12-01T06:39:08;36.38;;;18.92;;
27313;SDS011;14800;48.174;9.798;2022-12-01T06:41:37;36.83;;;19.02;;
27313;SDS011;14800;48.174;9.798;2022-12-01T06:44:03;34.97;;;18.85;;
27313;SDS011;14800;48.174;9.798;2022-12-01T06:46:29;35.78;;;19.42;;
27313;SDS011;14800;48.174;9.798;2022-12-01T06:48:55;39.85;;;19.00;;
27313;SDS011;14800;48.174;9.798;2022-12-01T06:51:21;37.47;;;18.92;;
27313;SDS011;14800;48.174;9.798;2022-12-01T06:53:46;39.33;;;19.13;;
27313;SDS011;14800;48.174;9.798;2022-12-01T06:56:12;37.40;;;18.92;;
27313;SDS011;14800;48.174;9.798;2022-12-01T06:58:37;36.63;;;18.77;;
27313;SDS011;14800;48.174;9.798;2022-12-01T07:01:07;37.53;;;18.98;;
27313;SDS011;14800;48.174;9.798;2022-12-01T07:03:36;36.75;;;19.23;;
27313;SDS011;14800;48.174;9.798;2022-12-01T07:06:02;37.45;;;19.17;;
27313;SDS011;14800;48.174;9.798;2022-12-01T07:08:28;35.78;;;17.85;;
27313;SDS011;14800;48.174;9.798;2022-12-01T07:10:56;35.17;;;18.63;;
27313;SDS011;14800;48.174;9.798;2022-12-01T07:13:22;40.67;;;18.90;;
27313;SDS011;14800;48.174;9.798;2022-12-01T07:15:48;33.75;;;18.63;;
27313;SDS011;14800;48.174;9.798;2022-12-01T07:18:14;35.60;;;18.02;;
27313;SDS011;14800;48.174;9.798;2022-12-01T07:20:39;34.03;;;18.35;;
27313;SDS011;14800;48.174;9.798;2022-12-01T07:23:05;36.85;;;19.08;;
27313;SDS011;14800;48.174;9.798;2022-12-01T07:25:30;38.17;;;18.27;;
27313;SDS011;14800;48.174;9.798;2022-12-01T07:27:56;36.47;;;18.75;;
27313;SDS011;14800;48.174;9.798;2022-12-01T07:30:21;34.63;;;19.00;;
27313;SDS011;14800;48.174;9.798;2022-12-01T07:32:47;37.67;;;18.50;;
27313;SDS011;14800;48.174;9.798;2022-12-01T07:35:13;40.17;;;19.23;;
27313;SDS011;14800;48.174;9.798;2022-12-01T07:37:38;38.38;;;19.42;;
27313;SDS011;14800;48.174;9.798;2022-12-01T07:40:04;37.55;;;18.58;;
27313;SDS011;14800;48.174;9.798;2022-12-01T07:42:30;35.55;;;18.58;;
27313;SDS011;14800;48.174;9.798;2022-12-01T07:44:56;35.70;;;18.45;;
27313;SDS011;14800;48.174;9.798;2022-12-01T07:47:21;38.08;;;19.02;;
27313;SDS011;14800;48.174;9.798;2022-12-01T07:49:47;44.58;;;20.35;;
27313;SDS011;14800;48.174;9.798;2022-12-01T07:52:13;38.40;;;19.15;;
27313;SDS011;14800;48.174;9.798;2022-12-01T07:54:38;37.75;;;20.08;;
27313;SDS011;14800;48.174;9.798;2022-12-01T07:57:04;35.78;;;18.90;;
27313;SDS011;14800;48.174;9.798;2022-12-01T07:59:29;37.33;;;19.15;;
27313;SDS011;14800;48.174;9.798;2022-12-01T08:01:55;35.50;;;18.70;;
27313;SDS011;14800;48.174;9.798;2022-12-01T08:04:20;37.03;;;19.05;;
27313;SDS011;14800;48.174;9.798;2022-12-01T08:06:46;39.28;;;19.67;;
27313;SDS011;14800;48.174;9.798;2022-12-01T08:09:12;36.88;;;18.50;;
27313;SDS011;14800;48.174;9.798;2022-12-01T08:11:37;35.63;;;19.20;;
27313;SDS011;14800;48.174;9.798;2022-12-01T08:14:03;38.03;;;18.80;;
27313;SDS011;14800;48.174;9.798;2022-12-01T08:16:28;35.42;;;18.80;;
27313;SDS011;14800;48.174;9.798;2022-12-01T08:18:55;39.78;;;19.80;;
27313;SDS011;14800;48.174;9.798;2022-12-01T08:21:21;36.38;;;18.20;;
27313;SDS011;14800;48.174;9.798;2022-12-01T08:23:47;37.25;;;18.55;;
27313;SDS011;14800;48.174;9.798;2022-12-01T08:26:16;35.00;;;17.95;;
27313;SDS011;14800;48.174;9.798;2022-12-01T08:28:43;35.53;;;19.02;;
27313;SDS011;14800;48.174;9.798;2022-12-01T08:31:19;37.40;;;18.85;;
27313;SDS011;14800;48.174;9.798;2022-12-01T08:33:50;36.83;;;18.65;;
27313;SDS011;14800;48.174;9.798;2022-12-01T08:36:16;36.72;;;18.77;;
27313;SDS011;14800;48.174;9.798;2022-12-01T08:38:43;36.38;;;18.23;;
27313;SDS011;14800;48.174;9.798;2022-12-01T08:41:10;37.22;;;18.95;;
27313;SDS011;14800;48.174;9.798;2022-12-01T08:43:37;36.78;;;18.80;;
27313;SDS011;14800;48.174;9.798;2022-12-01T08:46:04;34.40;;;18.20;;
27313;SDS011;14800;48.174;9.798;2022-12-01T08:48:30;37.17;;;18.38;;
27313;SDS011;14800;48.174;9.798;2022-12-01T08:51:00;37.05;;;18.98;;
27313;SDS011;14800;48.174;9.798;2022-12-01T08:53:26;38.67;;;19.45;;
27313;SDS011;14800;48.174;9.798;2022-12-01T08:55:52;38.45;;;18.35;;
27313;SDS011;14800;48.174;9.798;2022-12-01T08:58:17;36.50;;;18.75;;
27313;SDS011;14800;48.174;9.798;2022-12-01T09:00:43;37.17;;;18.95;;
27313;SDS011;14800;48.174;9.798;2022-12-01T09:03:09;35.10;;;17.90;;
27313;SDS011;14800;48.174;9.798;2022-12-01T09:05:34;36.72;;;19.58;;
27313;SDS011;14800;48.174;9.798;2022-12-01T09:08:00;35.53;;;18.90;;
27313;SDS011;14800;48.174;9.798;2022-12-01T09:10:49;38.60;;;19.20;;
27313;SDS011;14800;48.174;9.798;2022-12-01T09:13:16;38.67;;;19.48;;
27313;SDS011;14800;48.174;9.798;2022-12-01T09:15:42;38.05;;;19.02;;
27313;SDS011;14800;48.174;9.798;2022-12-01T09:18:07;36.78;;;18.73;;
27313;SDS011;14800;48.174;9.798;2022-12-01T09:20:33;37.83;;;19.33;;
27313;SDS011;14800;48.174;9.798;2022-12-01T09:22:58;38.28;;;18.45;;
27313;SDS011;14800;48.174;9.798;2022-12-01T09:25:24;38.58;;;19.60;;
27313;SDS011;14800;48.174;9.798;2022-12-01T09:27:50;39.72;;;19.58;;
27313;SDS011;14800;48.174;9.798;2022-12-01T09:30:15;38.80;;;19.25;;
27313;SDS011;14800;48.174;9.798;2022-12-01T09:32:41;37.05;;;19.08;;
27313;SDS011;14800;48.174;9.798;2022-12-01T09:35:07;38.22;;;19.23;;
27313;SDS011;14800;48.174;9.798;2022-12-01T09:37:32;37.60;;;19.20;;
27313;SDS011;14800;48.174;9.798;2022-12-01T09:39:58;38.45;;;20.45;;
27313;SDS011;14800;48.174;9.798;2022-12-01T09:42:23;37.67;;;19.23;;
27313;SDS011;14800;48.174;9.798;2022-12-01T09:44:54;62.67;;;35.85;;
27313;SDS011;14800;48.174;9.798;2022-12-01T09:50:03;44.08;;;21.77;;
27313;SDS011;14800;48.174;9.798;2022-12-01T09:52:46;39.97;;;21.40;;
27313;SDS011;14800;48.174;9.798;2022-12-01T09:55:19;37.35;;;19.30;;
27313;SDS011;14800;48.174;9.798;2022-12-01T09:57:48;38.28;;;20.48;;
27313;SDS011;14800;48.174;9.798;2022-12-01T10:00:34;48.42;;;24.95;;
27313;SDS011;14800;48.174;9.798;2022-12-01T10:03:19;50.33;;;21.08;;
27313;SDS011;14800;48.174;9.798;2022-12-01T10:05:58;41.63;;;20.25;;
27313;SDS011;14800;48.174;9.798;2022-12-01T10:08:35;39.75;;;20.23;;
27313;SDS011;14800;48.174;9.798;2022-12-01T10:11:13;39.35;;;20.80;;
27313;SDS011;14800;48.174;9.798;2022-12-01T10:13:47;37.38;;;19.63;;
27313;SDS011;14800;48.174;9.798;2022-12-01T10:16:21;39.30;;;19.77;;
27313;SDS011;14800;48.174;9.798;2022-12-01T10:18:55;40.90;;;19.83;;
27313;SDS011;14800;48.174;9.798;2022-12-01T10:21:32;37.70;;;19.58;;
27313;SDS011;14800;48.174;9.798;2022-12-01T10:35:17;44.95;;;19.98;;
27313;SDS011;14800;48.174;9.798;2022-12-01T10:37:45;37.53;;;18.38;;
27313;SDS011;14800;48.174;9.798;2022-12-01T10:40:16;41.42;;;19.90;;
27313;SDS011;14800;48.174;9.798;2022-12-01T10:42:45;39.10;;;18.17;;
27313;SDS011;14800;48.174;9.798;2022-12-01T10:45:14;39.15;;;18.83;;
27313;SDS011;14800;48.174;9.798;2022-12-01T10:48:05;37.90;;;19.23;;
27313;SDS011;14800;48.174;9.798;2022-12-01T10:50:34;36.92;;;18.40;;
27313;SDS011;14800;48.174;9.798;2022-12-01T10:53:00;33.97;;;17.73;;
27313;SDS011;14800;48.174;9.798;2022-12-01T10:55:27;38.90;;;18.15;;
27313;SDS011;14800;48.174;9.798;2022-12-01T10:57:57;35.85;;;17.40;;
27313;SDS011;14800;48.174;9.798;2022-12-01T11:00:32;32.58;;;16.85;;
27313;SDS011;14800;48.174;9.798;2022-12-01T11:03:01;35.75;;;17.60;;
27313;SDS011;14800;48.174;9.798;2022-12-01T11:05:28;32.22;;;16.38;;
27313;SDS011;14800;48.174;9.798;2022-12-01T11:07:58;33.67;;;16.88;;
27313;SDS011;14800;48.174;9.798;2022-12-01T11:10:33;33.72;;;16.80;;
27313;SDS011;14800;48.174;9.798;2022-12-01T11:13:43;37.53;;;17.88;;
27313;SDS011;14800;48.174;9.798;2022-12-01T11:15:55;35.45;;;18.10;;
27313;SDS011;14800;48.174;9.798;2022-12-01T11:23:43;34.75;;;17.30;;
27313;SDS011;14800;48.174;9.798;2022-12-01T11:31:20;34.55;;;17.42;;
27313;SDS011;14800;48.174;9.798;2022-12-01T11:36:20;37.63;;;18.27;;
27313;SDS011;14800;48.174;9.798;2022-12-01T11:38:58;36.72;;;18.17;;
27313;SDS011;14800;48.174;9.798;2022-12-01T11:41:32;42.05;;;18.63;;
27313;SDS011;14800;48.174;9.798;2022-12-01T11:44:02;46.72;;;21.63;;
27313;SDS011;14800;48.174;9.798;2022-12-01T11:46:32;46.42;;;21.15;;
27313;SDS011;14800;48.174;9.798;2022-12-01T11:49:01;39.17;;;20.30;;
27313;SDS011;14800;48.174;9.798;2022-12-01T11:51:28;38.22;;;19.45;;
27313;SDS011;14800;48.174;9.798;2022-12-01T11:56:51;42.13;;;19.27;;
27313;SDS011;14800;48.174;9.798;2022-12-01T12:04:49;45.35;;;22.15;;
27313;SDS011;14800;48.174;9.798;2022-12-01T12:07:54;44.63;;;21.70;;
27313;SDS011;14800;48.174;9.798;2022-12-01T12:10:45;44.85;;;21.45;;
27313;SDS011;14800;48.174;9.798;2022-12-01T12:24:06;45.53;;;21.88;;
27313;SDS011;14800;48.174;9.798;2022-12-01T12:27:14;40.83;;;19.08;;
27313;SDS011;14800;48.174;9.798;2022-12-01T12:45:46;39.72;;;20.17;;
27313;SDS011;14800;48.174;9.798;2022-12-01T12:51:15;40.05;;;19.27;;
27313;SDS011;14800;48.174;9.798;2022-12-01T12:56:26;34.75;;;17.02;;
27313;SDS011;14800;48.174;9.798;2022-12-01T12:58:56;34.33;;;17.38;;
27313;SDS011;14800;48.174;9.798;2022-12-01T13:01:40;34.47;;;18.00;;
27313;SDS011;14800;48.174;9.798;2022-12-01T13:04:44;35.35;;;17.55;;
27313;SDS011;14800;48.174;9.798;2022-12-01T13:09:52;34.72;;;17.58;;
27313;SDS011;14800;48.174;9.798;2022-12-01T13:12:27;32.92;;;18.02;;
27313;SDS011;14800;48.174;9.798;2022-12-01T13:15:10;35.85;;;18.17;;
27313;SDS011;14800;48.174;9.798;2022-12-01T13:17:39;35.85;;;17.45;;
27313;SDS011;14800;48.174;9.798;2022-12-01T13:20:16;34.10;;;18.02;;
27313;SDS011;14800;48.174;9.798;2022-12-01T13:22:45;31.33;;;16.80;;
27313;SDS011;14800;48.174;9.798;2022-12-01T13:25:12;31.10;;;15.95;;
27313;SDS011;14800;48.174;9.798;2022-12-01T13:27:47;32.70;;;16.88;;
27313;SDS011;14800;48.174;9.798;2022-12-01T13:30:16;29.20;;;15.68;;
27313;SDS011;14800;48.174;9.798;2022-12-01T13:32:56;29.88;;;15.75;;
27313;SDS011;14800;48.174;9.798;2022-12-01T13:35:25;29.08;;;15.00;;
27313;SDS011;14800;48.174;9.798;2022-12-01T13:37:55;33.22;;;16.77;;
27313;SDS011;14800;48.174;9.798;2022-12-01T13:40:40;32.97;;;17.45;;
27313;SDS011;14800;48.174;9.798;2022-12-01T13:43:13;30.42;;;17.02;;
27313;SDS011;14800;48.174;9.798;2022-12-01T13:45:47;32.28;;;15.93;;
27313;SDS011;14800;48.174;9.798;2022-12-01T13:51:11;23.33;;;13.85;;
27313;SDS011;14800;48.174;9.798;2022-12-01T13:53:37;23.40;;;13.85;;
27313;SDS011;14800;48.174;9.798;2022-12-01T13:58:42;21.63;;;12.38;;
27313;SDS011;14800;48.174;9.798;2022-12-01T14:06:24;24.63;;;12.18;;
27313;SDS011;14800;48.174;9.798;2022-12-01T14:09:45;23.63;;;12.32;;
27313;SDS011;14800;48.174;9.798;2022-12-01T14:12:30;23.00;;;12.15;;
27313;SDS011;14800;48.174;9.798;2022-12-01T14:14:59;19.15;;;11.20;;
27313;SDS011;14800;48.174;9.798;2022-12-01T14:17:28;23.83;;;12.18;;
27313;SDS011;14800;48.174;9.798;2022-12-01T14:22:42;25.45;;;12.90;;
27313;SDS011;14800;48.174;9.798;2022-12-01T14:27:44;26.23;;;13.45;;
27313;SDS011;14800;48.174;9.798;2022-12-01T14:30:57;24.60;;;13.63;;
27313;SDS011;14800;48.174;9.798;2022-12-01T14:35:59;26.30;;;13.82;;
27313;SDS011;14800;48.174;9.798;2022-12-01T14:38:25;25.02;;;13.65;;
27313;SDS011;14800;48.174;9.798;2022-12-01T14:40:52;27.38;;;13.90;;
27313;SDS011;14800;48.174;9.798;2022-12-01T14:43:18;25.70;;;13.65;;
27313;SDS011;14800;48.174;9.798;2022-12-01T14:46:05;26.70;;;14.65;;
27313;SDS011;14800;48.174;9.798;2022-12-01T14:48:42;25.40;;;13.43;;
27313;SDS011;14800;48.174;9.798;2022-12-01T14:51:11;26.83;;;13.90;;
27313;SDS011;14800;48.174;9.798;2022-12-01T14:53:43;28.92;;;14.23;;
27313;SDS011;14800;48.174;9.798;2022-12-01T14:56:16;25.95;;;14.05;;
27313;SDS011;14800;48.174;9.798;2022-12-01T14:58:53;25.40;;;13.45;;
27313;SDS011;14800;48.174;9.798;2022-12-01T15:01:21;28.08;;;14.80;;
27313;SDS011;14800;48.174;9.798;2022-12-01T15:03:52;26.83;;;14.10;;
27313;SDS011;14800;48.174;9.798;2022-12-01T15:06:21;24.75;;;13.45;;
27313;SDS011;14800;48.174;9.798;2022-12-01T15:09:08;28.95;;;14.25;;
27313;SDS011;14800;48.174;9.798;2022-12-01T15:11:51;25.25;;;14.05;;
27313;SDS011;14800;48.174;9.798;2022-12-01T15:16:53;25.88;;;14.32;;
27313;SDS011;14800;48.174;9.798;2022-12-01T15:19:28;24.45;;;13.50;;
27313;SDS011;14800;48.174;9.798;2022-12-01T15:21:56;26.73;;;13.68;;
27313;SDS011;14800;48.174;9.798;2022-12-01T15:24:23;30.60;;;14.68;;
27313;SDS011;14800;48.174;9.798;2022-12-01T15:26:51;25.23;;;13.95;;
27313;SDS011;14800;48.174;9.798;2022-12-01T15:29:26;27.27;;;14.45;;
27313;SDS011;14800;48.174;9.798;2022-12-01T15:32:07;26.73;;;14.05;;
27313;SDS011;14800;48.174;9.798;2022-12-01T15:34:43;26.35;;;13.80;;
27313;SDS011;14800;48.174;9.798;2022-12-01T15:37:14;27.65;;;13.77;;
27313;SDS011;14800;48.174;9.798;2022-12-01T15:39:52;28.67;;;15.40;;
27313;SDS011;14800;48.174;9.798;2022-12-01T15:42:29;28.60;;;15.48;;
27313;SDS011;14800;48.174;9.798;2022-12-01T15:47:50;29.27;;;15.48;;
27313;SDS011;14800;48.174;9.798;2022-12-01T15:50:35;29.17;;;15.70;;
27313;SDS011;14800;48.174;9.798;2022-12-01T15:55:32;29.15;;;16.05;;
27313;SDS011;14800;48.174;9.798;2022-12-01T15:57:59;29.63;;;16.52;;
27313;SDS011;14800;48.174;9.798;2022-12-01T16:00:29;36.28;;;18.75;;
27313;SDS011;14800;48.174;9.798;2022-12-01T16:02:56;33.75;;;17.40;;
27313;SDS011;14800;48.174;9.798;2022-12-01T16:05:30;31.52;;;16.73;;
27313;SDS011;14800;48.174;9.798;2022-12-01T16:07:57;33.38;;;16.90;;
27313;SDS011;14800;48.174;9.798;2022-12-01T16:10:36;36.30;;;19.08;;
27313;SDS011;14800;48.174;9.798;2022-12-01T16:16:00;39.10;;;18.60;;
27313;SDS011;14800;48.174;9.798;2022-12-01T16:18:51;38.72;;;18.05;;
27313;SDS011;14800;48.174;9.798;2022-12-01T16:21:22;31.70;;;17.13;;
27313;SDS011;14800;48.174;9.798;2022-12-01T16:23:56;33.20;;;17.33;;
27313;SDS011;14800;48.174;9.798;2022-12-01T16:26:31;32.55;;;17.42;;
27313;SDS011;14800;48.174;9.798;2022-12-01T16:28:57;36.05;;;17.88;;
27313;SDS011;14800;48.174;9.798;2022-12-01T16:31:24;35.15;;;19.30;;
27313;SDS011;14800;48.174;9.798;2022-12-01T16:33:58;36.70;;;18.65;;
27313;SDS011;14800;48.174;9.798;2022-12-01T16:36:26;35.63;;;18.25;;
27313;SDS011;14800;48.174;9.798;2022-12-01T16:38:52;35.40;;;18.23;;
27313;SDS011;14800;48.174;9.798;2022-12-01T16:41:24;35.78;;;18.20;;
27313;SDS011;14800;48.174;9.798;2022-12-01T16:43:54;34.45;;;17.65;;
27313;SDS011;14800;48.174;9.798;2022-12-01T16:46:20;37.72;;;19.00;;
27313;SDS011;14800;48.174;9.798;2022-12-01T16:48:45;36.97;;;18.92;;
27313;SDS011;14800;48.174;9.798;2022-12-01T16:51:11;37.50;;;19.10;;
27313;SDS011;14800;48.174;9.798;2022-12-01T16:53:38;35.53;;;18.45;;
27313;SDS011;14800;48.174;9.798;2022-12-01T16:56:03;33.60;;;18.08;;
27313;SDS011;14800;48.174;9.798;2022-12-01T16:58:29;37.00;;;19.45;;